Time;durP1;ratioP1;P1;durP2;ratioP2;P2;SDS_P1;SDS_P2;PMS_P1;PMS_P2;Temp;Humidity;BMP_temperature;BMP_pressure;BME280_temperature;BME280_humidity;BME280_pressure;Samples;Min_cycle;Max_cycle;Signal;HPM_P1;HPM_P2
2022/09/26 00:02:16;;;;;;;;;;;;;;;;;;5030675;28;1433;-73
2022/09/26 00:04:42;;;;;;;;;;;;;;;;;;5031154;28;941;-73
2022/09/26 00:07:08;;;;;;;;;;;;;;;;;;5031357;28;1915;-72
2022/09/26 00:09:35;;;;;;;;;;;;;;;;;;5031156;28;1138;-72
2022/09/26 00:12:03;;;;;;;;;;;;;;;;;;5030753;28;964;-73
2022/09/26 00:14:30;;;;;;;;;;;;;;;;;;5030690;28;1116;-73
2022/09/26 00:16:56;;;;;;;;;;;;;;;;;;5033575;28;1381;-72
2022/09/26 00:19:23;;;;;;;;;;;;;;;;;;5016838;28;1041;-72
2022/09/26 00:21:49;;;;;;;;;;;;;;;;;;5034461;28;942;-72
2022/09/26 00:24:15;;;;;;;;;;;;;;;;;;5016931;28;1407;-73
2022/09/26 00:26:42;;;;;;;;;;;;;;;;;;5034416;28;1980;-72
2022/09/26 00:29:09;;;;;;;;;;;;;;;;;;5016711;28;1217;-72
2022/09/26 00:31:38;;;;;;;;;;;;;;;;;;5016579;28;1235;-72
2022/09/26 00:34:04;;;;;;;;;;;;;;;;;;5034495;28;796;-72
2022/09/26 00:36:31;;;;;;;;;;;;;;;;;;5016704;28;1309;-72
2022/09/26 00:38:57;;;;;;;;;;;;;;;;;;5016837;28;1160;-73
2022/09/26 00:41:23;;;;;;;;;;;;;;;;;;5016284;28;1339;-71
2022/09/26 00:43:50;;;;;;;;;;;;;;;;;;5016741;28;1217;-73
2022/09/26 00:46:22;;;;;;;;;;;;;;;;;;5016489;28;2249;-72
2022/09/26 00:48:51;;;;;;;;;;;;;;;;;;5017091;28;1644;-73
2022/09/26 00:51:17;;;;;;;;;;;;;;;;;;5016379;28;1241;-71
2022/09/26 00:53:44;;;;;;;;;;;;;;;;;;5017942;28;1144;-73
2022/09/26 00:56:10;;;;;;;;;;;;;;;;;;5017708;28;1346;-72
2022/09/26 00:58:38;;;;;;;;;;;;;;;;;;5017367;28;1117;-73
2022/09/26 01:01:05;;;;;;;;;;;;;;;;;;5017556;28;1192;-72
2022/09/26 01:03:31;;;;;;;;;;;;;;;;;;5016666;28;1274;-73
2022/09/26 01:05:58;;;;;;;;;;;;;;;;;;5016226;28;1972;-72
2022/09/26 01:08:25;;;;;;;;;;;;;;;;;;5016067;28;920;-72
2022/09/26 01:10:52;;;;;;;;;;;;;;;;;;5016271;28;1252;-73
2022/09/26 01:13:18;;;;;;;;;;;;;;;;;;5033690;28;1075;-73
2022/09/26 01:15:44;;;;;;;;;;;;;;;;;;5016197;28;1495;-72
2022/09/26 01:18:10;;;;;;;;;;;;;;;;;;5016015;28;1176;-73
2022/09/26 01:20:40;;;;;;;;;;;;;;;;;;5016264;28;1131;-70
2022/09/26 01:23:25;;;;;;;;;;;;;;;;;;5015736;28;1298;-72
2022/09/26 01:26:08;;;;;;;;;;;;;;;;;;5015614;28;1914;-73
2022/09/26 01:28:41;;;;;;;;;;;;;;;;;;5015073;28;905;-72
2022/09/26 01:31:10;;;;;;;;;;;;;;;;;;5033602;28;1032;-72
2022/09/26 01:33:45;;;;;;;;;;;;;;;;;;5015519;28;1244;-73
2022/09/26 01:36:18;;;;;;;;;;;;;;;;;;5015800;28;1543;-73
2022/09/26 01:38:47;;;;;;;;;;;;;;;;;;5015519;28;1136;-72
2022/09/26 01:41:18;;;;;;;;;;;;;;;;;;5033124;28;1308;-73
2022/09/26 01:43:47;;;;;;;;;;;;;;;;;;5015358;28;1435;-72
2022/09/26 01:46:16;;;;;;;;;;;;;;;;;;5033207;28;1914;-72
2022/09/26 01:48:44;;;;;;;;;;;;;;;;;;5015164;28;1488;-72
2022/09/26 01:51:12;;;;;;;;;;;;;;;;;;5015315;28;1030;-71
2022/09/26 01:53:39;;;;;;;;;;;;;;;;;;5015319;28;1292;-73
2022/09/26 01:56:06;;;;;;;;;;;;;;;;;;5015121;28;1409;-72
2022/09/26 01:58:34;;;;;;;;;;;;;;;;;;5015385;28;2332;-73
2022/09/26 02:01:01;;;;;;;;;;;;;;;;;;5015260;28;1298;-74
2022/09/26 02:03:29;;;;;;;;;;;;;;;;;;5014747;28;1120;-72
2022/09/26 02:05:56;;;;;;;;;;;;;;;;;;5015156;28;1931;-72
2022/09/26 02:08:23;;;;;;;;;;;;;;;;;;5014855;28;2093;-72
2022/09/26 02:10:51;;;;;;;;;;;;;;;;;;5015089;28;1043;-72
2022/09/26 02:13:18;;;;;;;;;;;;;;;;;;5014615;28;1432;-73
2022/09/26 02:15:46;;;;;;;;;;;;;;;;;;5014925;28;1342;-73
2022/09/26 02:18:13;;;;;;;;;;;;;;;;;;5014998;28;1374;-72
2022/09/26 02:20:41;;;;;;;;;;;;;;;;;;5032553;28;938;-72
2022/09/26 02:23:08;;;;;;;;;;;;;;;;;;5014381;28;1337;-73
2022/09/26 02:25:36;;;;;;;;;;;;;;;;;;5032608;28;1433;-73
2022/09/26 02:28:03;;;;;;;;;;;;;;;;;;5014691;28;1977;-72
2022/09/26 02:30:30;;;;;;;;;;;;;;;;;;5014618;28;1035;-72
2022/09/26 02:32:58;;;;;;;;;;;;;;;;;;5014442;28;1534;-72
2022/09/26 02:38:09;;;;;;;;;;;;;;;;;;5032219;28;764;-72
2022/09/26 02:40:47;;;;;;;;;;;;;;;;;;5014523;28;1284;-73
2022/09/26 02:43:20;;;;;;;;;;;;;;;;;;5014280;28;2112;-73
2022/09/26 02:45:47;;;;;;;;;;;;;;;;;;5014400;28;1350;-73
2022/09/26 02:48:16;;;;;;;;;;;;;;;;;;5014307;28;1983;-73
2022/09/26 02:50:47;;;;;;;;;;;;;;;;;;5014259;28;1298;-72
2022/09/26 02:53:20;;;;;;;;;;;;;;;;;;5014008;28;1002;-71
2022/09/26 02:55:51;;;;;;;;;;;;;;;;;;5014026;28;1289;-73
2022/09/26 02:58:18;;;;;;;;;;;;;;;;;;5014016;28;1613;-73
2022/09/26 03:00:48;;;;;;;;;;;;;;;;;;5014560;28;1246;-73
2022/09/26 03:03:18;;;;;;;;;;;;;;;;;;5013607;28;1203;-73
2022/09/26 03:05:44;;;;;;;;;;;;;;;;;;5014077;28;1556;-72
2022/09/26 03:08:11;;;;;;;;;;;;;;;;;;5014076;28;1899;-72
2022/09/26 03:10:40;;;;;;;;;;;;;;;;;;5014082;28;1207;-72
2022/09/26 03:13:06;;;;;;;;;;;;;;;;;;5013666;28;1294;-72
2022/09/26 03:15:33;;;;;;;;;;;;;;;;;;5031568;28;1301;-72
2022/09/26 03:17:59;;;;;;;;;;;;;;;;;;5013970;28;1322;-71
2022/09/26 03:20:27;;;;;;;;;;;;;;;;;;5013786;28;1180;-72
2022/09/26 03:22:54;;;;;;;;;;;;;;;;;;5013614;28;1517;-72
2022/09/26 03:25:23;;;;;;;;;;;;;;;;;;5013427;28;1342;-72
2022/09/26 03:28:01;;;;;;;;;;;;;;;;;;5013626;28;1972;-73
2022/09/26 03:30:28;;;;;;;;;;;;;;;;;;5013802;28;1181;-72
2022/09/26 03:33:13;;;;;;;;;;;;;;;;;;5024981;28;1575;-73
2022/09/26 03:35:39;;;;;;;;;;;;;;;;;;5011882;28;1484;-73
2022/09/26 03:38:05;;;;;;;;;;;;;;;;;;5012498;28;1406;-73
2022/09/26 03:40:40;;;;;;;;;;;;;;;;;;5012946;28;1393;-72
2022/09/26 03:43:42;;;;;;;;;;;;;;;;;;5024041;28;1473;-72
2022/09/26 03:46:10;;;;;;;;;;;;;;;;;;5011948;28;1460;-72
2022/09/26 03:48:36;;;;;;;;;;;;;;;;;;5012603;28;1930;-72
2022/09/26 03:51:02;;;;;;;;;;;;;;;;;;5011545;28;1462;-72
2022/09/26 03:53:30;;;;;;;;;;;;;;;;;;5013123;28;1352;-72
2022/09/26 03:56:01;;;;;;;;;;;;;;;;;;5011780;28;1522;-71
2022/09/26 03:58:28;;;;;;;;;;;;;;;;;;5013166;28;1532;-73
2022/09/26 04:00:56;;;;;;;;;;;;;;;;;;5012502;28;1421;-73
2022/09/26 04:03:23;;;;;;;;;;;;;;;;;;5004345;28;1434;-73
2022/09/26 04:05:49;;;;;;;;;;;;;;;;;;5013893;28;1314;-73
2022/09/26 04:08:16;;;;;;;;;;;;;;;;;;5012552;28;1958;-72
2022/09/26 04:10:43;;;;;;;;;;;;;;;;;;5013756;28;1231;-72
2022/09/26 04:13:09;;;;;;;;;;;;;;;;;;5016619;28;1158;-72
2022/09/26 04:15:36;;;;;;;;;;;;;;;;;;5016427;28;1676;-72
2022/09/26 04:18:07;;;;;;;;;;;;;;;;;;5012308;28;1417;-73
2022/09/26 04:20:33;;;;;;;;;;;;;;;;;;5012438;28;1462;-72
2022/09/26 04:23:00;;;;;;;;;;;;;;;;;;5010951;28;2074;-73
2022/09/26 04:25:26;;;;;;;;;;;;;;;;;;5011928;28;1395;-72
2022/09/26 04:27:52;;;;;;;;;;;;;;;;;;5012651;28;1960;-71
2022/09/26 04:30:18;;;;;;;;;;;;;;;;;;5014280;28;1380;-72
2022/09/26 04:32:51;;;;;;;;;;;;;;;;;;5020123;28;1333;-72
2022/09/26 04:35:36;;;;;;;;;;;;;;;;;;5039297;28;1402;-72
2022/09/26 04:38:03;;;;;;;;;;;;;;;;;;5021391;28;1430;-72
2022/09/26 04:40:30;;;;;;;;;;;;;;;;;;5022503;28;1466;-73
2022/09/26 04:43:02;;;;;;;;;;;;;;;;;;5020604;28;1611;-73
2022/09/26 04:45:28;;;;;;;;;;;;;;;;;;5041456;22;4044;-76
2022/09/26 04:47:55;;;;;;;;;;;;;;;;;;5028960;28;1967;-74
2022/09/26 04:50:24;;;;;;;;;;;;;;;;;;5030680;28;862;-75
2022/09/26 04:53:09;;;;;;;;;;;;;;;;;;5012463;28;1220;-75
2022/09/26 04:55:43;;;;;;;;;;;;;;;;;;5021015;28;1417;-75
2022/09/26 04:58:09;;;;;;;;;;;;;;;;;;5010696;28;1494;-75
2022/09/26 05:00:37;;;;;;;;;;;;;;;;;;5001710;28;1562;-74
2022/09/26 05:03:05;;;;;;;;;;;;;;;;;;5017877;28;1313;-74
2022/09/26 05:05:32;;;;;;;;;;;;;;;;;;5035861;28;1419;-75
2022/09/26 05:07:58;;;;;;;;;;;;;;;;;;5036080;28;1971;-74
2022/09/26 05:10:26;;;;;;;;;;;;;;;;;;5035809;28;1595;-73
2022/09/26 05:12:58;;;;;;;;;;;;;;;;;;5035633;28;1020;-73
2022/09/26 05:15:24;;;;;;;;;;;;;;;;;;5030455;28;1354;-74
2022/09/26 05:17:55;;;;;;;;;;;;;;;;;;5016083;28;1297;-74
2022/09/26 05:20:22;;;;;;;;;;;;;;;;;;5031470;28;1295;-74
2022/09/26 05:22:56;;;;;;;;;;;;;;;;;;5035426;28;1269;-74
2022/09/26 05:28:07;;;;;;;;;;;;;;;;;;5014090;28;1985;-75
2022/09/26 05:30:34;;;;;;;;;;;;;;;;;;5031846;28;874;-75
2022/09/26 05:33:01;;;;;;;;;;;;;;;;;;5031401;28;791;-75
2022/09/26 05:35:27;;;;;;;;;;;;;;;;;;5013671;28;1310;-75
2022/09/26 05:37:57;;;;;;;;;;;;;;;;;;5013987;28;1437;-75
2022/09/26 05:43:10;;;;;;;;;;;;;;;;;;5015425;28;1484;-75
2022/09/26 05:45:36;;;;;;;;;;;;;;;;;;5015417;28;1391;-75
2022/09/26 05:48:03;;;;;;;;;;;;;;;;;;5014874;28;2398;-75
2022/09/26 05:50:30;;;;;;;;;;;;;;;;;;5015478;28;1368;-75
2022/09/26 05:52:56;;;;;;;;;;;;;;;;;;5014948;28;1406;-75
2022/09/26 05:55:24;;;;;;;;;;;;;;;;;;5015346;28;1307;-75
2022/09/26 05:58:18;;;;;;;;;;;;;;;;;;4996497;28;1476;-75
2022/09/26 06:01:04;;;;;;;;;;;;;;;;;;5032939;28;982;-75
2022/09/26 06:03:33;;;;;;;;;;;;;;;;;;5014753;28;1499;-74
2022/09/26 06:06:10;;;;;;;;;;;;;;;;;;5031849;28;1405;-75
2022/09/26 06:08:36;;;;;;;;;;;;;;;;;;5031334;28;1918;-75
2022/09/26 06:11:30;;;;;;;;;;;;;;;;;;5014562;28;1301;-75
2022/09/26 06:13:59;;;;;;;;;;;;;;;;;;5014573;28;1447;-73
2022/09/26 06:16:25;;;;;;;;;;;;;;;;;;5014785;28;1363;-75
2022/09/26 06:18:54;;;;;;;;;;;;;;;;;;5031405;28;1357;-75
2022/09/26 06:21:21;;;;;;;;;;;;;;;;;;5014535;28;1365;-74
2022/09/26 06:23:51;;;;;;;;;;;;;;;;;;5031412;28;1648;-75
2022/09/26 06:26:20;;;;;;;;;;;;;;;;;;5014641;28;1377;-76
2022/09/26 06:28:48;;;;;;;;;;;;;;;;;;5014679;28;1977;-75
2022/09/26 06:31:17;;;;;;;;;;;;;;;;;;5030993;28;1490;-78
2022/09/26 06:34:11;;;;;;;;;;;;;;;;;;5032183;28;1305;-75
2022/09/26 06:36:47;;;;;;;;;;;;;;;;;;5031215;28;1324;-75
2022/09/26 06:39:14;;;;;;;;;;;;;;;;;;5030945;28;1246;-76
2022/09/26 06:41:40;;;;;;;;;;;;;;;;;;5030544;28;1144;-76
2022/09/26 06:44:33;;;;;;;;;;;;;;;;;;5008382;28;1302;-75
2022/09/26 06:47:16;;;;;;;;;;;;;;;;;;5030574;28;1953;-75
2022/09/26 06:49:44;;;;;;;;;;;;;;;;;;5030864;28;1491;-75
2022/09/26 06:52:30;;;;;;;;;;;;;;;;;;5030267;28;1359;-76
2022/09/26 06:54:56;;;;;;;;;;;;;;;;;;5014890;28;1408;-75
2022/09/26 06:57:23;;;;;;;;;;;;;;;;;;5030774;28;1335;-76
2022/09/26 06:59:49;;;;;;;;;;;;;;;;;;5030786;28;1220;-75
2022/09/26 07:02:21;;;;;;;;;;;;;;;;;;5030151;28;1064;-76
2022/09/26 07:04:56;;;;;;;;;;;;;;;;;;5030559;28;1336;-75
2022/09/26 07:07:40;;;;;;;;;;;;;;;;;;5030343;28;1903;-77
2022/09/26 07:10:09;;;;;;;;;;;;;;;;;;5030585;28;1581;-75
2022/09/26 07:12:42;;;;;;;;;;;;;;;;;;5030157;28;1384;-75
2022/09/26 07:15:10;;;;;;;;;;;;;;;;;;5014069;28;1555;-75
2022/09/26 07:17:38;;;;;;;;;;;;;;;;;;5013882;28;1421;-75
2022/09/26 07:20:34;;;;;;;;;;;;;;;;;;5022418;28;1083;-75
2022/09/26 07:23:25;;;;;;;;;;;;;;;;;;5030052;28;1406;-75
2022/09/26 07:25:52;;;;;;;;;;;;;;;;;;5013276;28;1376;-75
2022/09/26 07:28:18;;;;;;;;;;;;;;;;;;5029960;28;1918;-75
2022/09/26 07:30:48;;;;;;;;;;;;;;;;;;5013802;28;1321;-74
2022/09/26 07:33:30;;;;;;;;;;;;;;;;;;5029841;28;1291;-75
2022/09/26 07:36:01;;;;;;;;;;;;;;;;;;5030203;28;1347;-75
2022/09/26 07:38:28;;;;;;;;;;;;;;;;;;5030101;28;1271;-75
2022/09/26 07:40:54;;;;;;;;;;;;;;;;;;5013712;28;1460;-75
2022/09/26 07:43:21;;;;;;;;;;;;;;;;;;5013754;28;1390;-74
2022/09/26 07:51:53;;;;;;;;;;;;;;;;;;5030713;28;1147;-75
2022/09/26 07:54:21;;;;;;;;;;;;;;;;;;5029421;28;1517;-75
2022/09/26 07:56:50;;;;;;;;;;;;;;;;;;5031336;28;865;-75
2022/09/26 07:59:36;;;;;;;;;;;;;;;;;;5029808;28;1440;-76
2022/09/26 08:02:23;;;;;;;;;;;;;;;;;;5029559;28;1524;-75
2022/09/26 08:04:53;;;;;;;;;;;;;;;;;;5013314;28;1413;-76
2022/09/26 08:07:20;;;;;;;;;;;;;;;;;;5013393;28;1420;-76
2022/09/26 08:09:55;;;;;;;;;;;;;;;;;;5029692;28;1968;-75
2022/09/26 08:12:40;;;;;;;;;;;;;;;;;;5030705;28;593;-75
2022/09/26 08:15:23;;;;;;;;;;;;;;;;;;5013666;28;1441;-75
2022/09/26 08:18:01;;;;;;;;;;;;;;;;;;5029587;28;1421;-75
2022/09/26 08:20:29;;;;;;;;;;;;;;;;;;5013163;28;1282;-75
2022/09/26 08:22:56;;;;;;;;;;;;;;;;;;5013198;28;1346;-75
2022/09/26 08:25:23;;;;;;;;;;;;;;;;;;5030826;28;1330;-75
2022/09/26 08:27:58;;;;;;;;;;;;;;;;;;5029652;28;1914;-74
2022/09/26 08:30:30;;;;;;;;;;;;;;;;;;5013216;28;1553;-75
2022/09/26 08:33:00;;;;;;;;;;;;;;;;;;5029427;28;1388;-75
2022/09/26 08:35:37;;;;;;;;;;;;;;;;;;5013035;28;1458;-75
2022/09/26 08:38:26;;;;;;;;;;;;;;;;;;5034225;28;874;-75
2022/09/26 08:41:34;;;;;;;;;;;;;;;;;;4953670;29;1137;-75
2022/09/26 08:44:40;;;;;;;;;;;;;;;;;;4937898;29;1565;-75
2022/09/26 08:47:43;;;;;;;;;;;;;;;;;;5018810;28;1380;-76
2022/09/26 08:50:47;;;;;;;;;;;;;;;;;;5025758;28;1239;-75
2022/09/26 08:53:13;;;;;;;;;;;;;;;;;;5034032;28;755;-75
2022/09/26 08:55:46;;;;;;;;;;;;;;;;;;5016587;28;1592;-75
2022/09/26 08:58:14;;;;;;;;;;;;;;;;;;5032856;28;1200;-75
2022/09/26 09:00:40;;;;;;;;;;;;;;;;;;5032943;28;1213;-75
2022/09/26 09:03:11;;;;;;;;;;;;;;;;;;5032466;28;1486;-75
2022/09/26 09:05:42;;;;;;;;;;;;;;;;;;5014829;28;2240;-75
2022/09/26 09:08:12;;;;;;;;;;;;;;;;;;5024604;28;1976;-75
2022/09/26 09:10:47;;;;;;;;;;;;;;;;;;5016172;28;1451;-75
2022/09/26 09:13:27;;;;;;;;;;;;;;;;;;5016049;28;1235;-75
2022/09/26 09:16:18;;;;;;;;;;;;;;;;;;5032597;28;1455;-75
2022/09/26 09:18:58;;;;;;;;;;;;;;;;;;5016109;28;1333;-75
2022/09/26 09:21:47;;;;;;;;;;;;;;;;;;5015802;28;902;-75
2022/09/26 09:24:27;;;;;;;;;;;;;;;;;;5016223;28;1419;-74
2022/09/26 09:26:58;;;;;;;;;;;;;;;;;;5016142;28;1425;-75
2022/09/26 09:29:38;;;;;;;;;;;;;;;;;;5032440;28;1910;-75
2022/09/26 09:32:43;;;;;;;;;;;;;;;;;;5033241;28;975;-75
2022/09/26 09:35:17;;;;;;;;;;;;;;;;;;5015596;28;1330;-75
2022/09/26 09:37:59;;;;;;;;;;;;;;;;;;5033668;28;873;-74
2022/09/26 09:40:43;;;;;;;;;;;;;;;;;;5015890;28;1447;-75
2022/09/26 09:43:11;;;;;;;;;;;;;;;;;;5015630;28;1380;-75
2022/09/26 09:45:39;;;;;;;;;;;;;;;;;;5015579;28;1314;-75
2022/09/26 09:48:06;;;;;;;;;;;;;;;;;;5015081;28;1228;-76
2022/09/26 09:50:35;;;;;;;;;;;;;;;;;;5015577;28;1168;-75
2022/09/26 09:53:05;;;;;;;;;;;;;;;;;;5015426;28;1340;-75
2022/09/26 09:55:38;;;;;;;;;;;;;;;;;;5003158;28;1543;-74
2022/09/26 09:58:10;;;;;;;;;;;;;;;;;;4995699;28;1527;-75
2022/09/26 10:00:37;;;;;;;;;;;;;;;;;;5013179;28;958;-75
2022/09/26 10:03:16;;;;;;;;;;;;;;;;;;4995660;28;1496;-76
2022/09/26 10:05:44;;;;;;;;;;;;;;;;;;5013122;28;1297;-75
2022/09/26 10:08:15;;;;;;;;;;;;;;;;;;4995505;28;1910;-75
2022/09/26 10:11:04;;;;;;;;;;;;;;;;;;5013354;28;714;-76
2022/09/26 10:13:52;;;;;;;;;;;;;;;;;;5013227;28;721;-75
2022/09/26 10:16:26;;;;;;;;;;;;;;;;;;4995580;28;1421;-76
2022/09/26 10:19:04;;;;;;;;;;;;;;;;;;4995462;28;1406;-75
2022/09/26 10:21:39;;;;;;;;;;;;;;;;;;4995332;28;1190;-76
2022/09/26 10:24:06;;;;;;;;;;;;;;;;;;4996331;28;1332;-76
2022/09/26 10:26:45;;;;;;;;;;;;;;;;;;4995313;28;1326;-76
2022/09/26 10:29:23;;;;;;;;;;;;;;;;;;4995363;28;1910;-77
2022/09/26 10:31:54;;;;;;;;;;;;;;;;;;4994818;28;1165;-76
2022/09/26 10:34:21;;;;;;;;;;;;;;;;;;5012678;28;1420;-76
2022/09/26 10:36:48;;;;;;;;;;;;;;;;;;4994928;28;1203;-75
2022/09/26 10:42:00;;;;;;;;;;;;;;;;;;4994550;28;1632;-76
2022/09/26 10:44:29;;;;;;;;;;;;;;;;;;4994881;28;1436;-76
2022/09/26 10:47:07;;;;;;;;;;;;;;;;;;5012711;28;843;-76
2022/09/26 10:49:57;;;;;;;;;;;;;;;;;;5012079;28;1907;-76
2022/09/26 10:52:57;;;;;;;;;;;;;;;;;;5012955;28;1150;-77
2022/09/26 10:55:27;;;;;;;;;;;;;;;;;;4994603;28;1485;-75
2022/09/26 10:57:54;;;;;;;;;;;;;;;;;;5012167;28;867;-76
2022/09/26 11:00:35;;;;;;;;;;;;;;;;;;4993729;28;1558;-75
2022/09/26 11:03:02;;;;;;;;;;;;;;;;;;4993914;28;1539;-76
2022/09/26 11:08:15;;;;;;;;;;;;;;;;;;5014109;28;1156;-76
2022/09/26 11:11:00;;;;;;;;;;;;;;;;;;5032236;28;679;-76
2022/09/26 11:13:38;;;;;;;;;;;;;;;;;;5013739;28;1328;-76
2022/09/26 11:16:11;;;;;;;;;;;;;;;;;;5014310;28;1673;-76
2022/09/26 11:18:43;;;;;;;;;;;;;;;;;;5013814;28;1523;-75
2022/09/26 11:21:11;;;;;;;;;;;;;;;;;;5013935;28;1511;-75
2022/09/26 11:23:39;;;;;;;;;;;;;;;;;;5013798;28;1227;-75
2022/09/26 11:26:08;;;;;;;;;;;;;;;;;;5013946;28;1523;-76
2022/09/26 11:28:35;;;;;;;;;;;;;;;;;;5013795;28;1275;-76
2022/09/26 11:31:30;;;;;;;;;;;;;;;;;;5026970;28;1179;-75
2022/09/26 11:34:17;;;;;;;;;;;;;;;;;;5031206;28;1318;-75
2022/09/26 11:37:00;;;;;;;;;;;;;;;;;;5013615;28;1343;-75
2022/09/26 11:39:31;;;;;;;;;;;;;;;;;;5030321;28;1392;-75
2022/09/26 11:42:01;;;;;;;;;;;;;;;;;;5013188;28;1254;-75
2022/09/26 11:44:33;;;;;;;;;;;;;;;;;;5013318;28;1486;-75
2022/09/26 11:47:29;;;;;;;;;;;;;;;;;;5031540;28;845;-76
2022/09/26 11:50:01;;;;;;;;;;;;;;;;;;5012090;28;1977;-75
2022/09/26 11:52:43;;;;;;;;;;;;;;;;;;5013040;28;1490;-75
2022/09/26 11:55:13;;;;;;;;;;;;;;;;;;5031031;28;1299;-75
2022/09/26 11:57:41;;;;;;;;;;;;;;;;;;5031199;28;957;-76
2022/09/26 12:00:14;;;;;;;;;;;;;;;;;;5031242;28;957;-76
2022/09/26 12:02:45;;;;;;;;;;;;;;;;;;5030821;28;1123;-75
2022/09/26 12:05:19;;;;;;;;;;;;;;;;;;5031091;28;1408;-75
2022/09/26 12:07:47;;;;;;;;;;;;;;;;;;5030872;28;859;-75
2022/09/26 12:10:14;;;;;;;;;;;;;;;;;;5031281;28;1977;-75
2022/09/26 12:12:41;;;;;;;;;;;;;;;;;;5033339;28;800;-75
2022/09/26 12:15:13;;;;;;;;;;;;;;;;;;5035219;28;1272;-76
2022/09/26 12:17:43;;;;;;;;;;;;;;;;;;5035039;28;838;-76
2022/09/26 12:20:16;;;;;;;;;;;;;;;;;;5035041;28;1075;-75
2022/09/26 12:22:43;;;;;;;;;;;;;;;;;;5034507;28;956;-75
2022/09/26 12:25:17;;;;;;;;;;;;;;;;;;5034744;28;1301;-76
2022/09/26 12:27:44;;;;;;;;;;;;;;;;;;5034980;28;1124;-76
2022/09/26 12:30:11;;;;;;;;;;;;;;;;;;5017027;28;1979;-76
2022/09/26 12:32:41;;;;;;;;;;;;;;;;;;5034444;28;1130;-75
2022/09/26 12:35:17;;;;;;;;;;;;;;;;;;5034641;28;1383;-75
2022/09/26 12:37:56;;;;;;;;;;;;;;;;;;5034660;28;1076;-75
2022/09/26 12:40:26;;;;;;;;;;;;;;;;;;5035303;28;957;-76
2022/09/26 12:42:59;;;;;;;;;;;;;;;;;;5034401;28;1048;-75
2022/09/26 12:45:41;;;;;;;;;;;;;;;;;;5034696;28;1413;-75
2022/09/26 12:48:28;;;;;;;;;;;;;;;;;;5016717;28;1315;-75
2022/09/26 12:50:59;;;;;;;;;;;;;;;;;;5034183;28;1918;-76
2022/09/26 12:53:30;;;;;;;;;;;;;;;;;;5034099;28;1080;-75
2022/09/26 12:55:59;;;;;;;;;;;;;;;;;;5034241;28;1335;-76
2022/09/26 12:58:29;;;;;;;;;;;;;;;;;;5034442;28;1068;-77
2022/09/26 13:00:58;;;;;;;;;;;;;;;;;;5034169;28;1112;-75
2022/09/26 13:03:34;;;;;;;;;;;;;;;;;;5034081;28;1076;-76
2022/09/26 13:06:06;;;;;;;;;;;;;;;;;;5033893;28;1314;-76
2022/09/26 13:08:33;;;;;;;;;;;;;;;;;;5034044;28;819;-75
2022/09/26 13:11:03;;;;;;;;;;;;;;;;;;5033670;28;2384;-76
2022/09/26 13:13:39;;;;;;;;;;;;;;;;;;5015970;28;1132;-75
2022/09/26 13:16:11;;;;;;;;;;;;;;;;;;5033878;28;1381;-75
2022/09/26 13:18:42;;;;;;;;;;;;;;;;;;5033861;28;835;-76
2022/09/26 13:21:11;;;;;;;;;;;;;;;;;;5033926;28;1115;-75
2022/09/26 13:23:39;;;;;;;;;;;;;;;;;;5032367;28;1068;-76
2022/09/26 13:26:07;;;;;;;;;;;;;;;;;;5033774;28;1323;-75
2022/09/26 13:28:36;;;;;;;;;;;;;;;;;;5033731;28;1147;-76
2022/09/26 13:31:03;;;;;;;;;;;;;;;;;;5033513;28;1981;-76
2022/09/26 13:33:31;;;;;;;;;;;;;;;;;;5015519;28;1175;-75
2022/09/26 13:35:59;;;;;;;;;;;;;;;;;;5033187;28;1358;-75
2022/09/26 13:38:33;;;;;;;;;;;;;;;;;;5033602;28;1033;-74
2022/09/26 13:41:00;;;;;;;;;;;;;;;;;;5033545;28;631;-75
2022/09/26 13:43:30;;;;;;;;;;;;;;;;;;5033156;28;941;-76
2022/09/26 13:45:59;;;;;;;;;;;;;;;;;;5033014;28;1424;-76
2022/09/26 13:48:28;;;;;;;;;;;;;;;;;;5015569;28;922;-77
2022/09/26 13:50:55;;;;;;;;;;;;;;;;;;5033012;28;1979;-75
2022/09/26 13:53:25;;;;;;;;;;;;;;;;;;5029799;28;1539;-76
2022/09/26 13:56:06;;;;;;;;;;;;;;;;;;5015207;28;1340;-75
2022/09/26 13:58:39;;;;;;;;;;;;;;;;;;5032008;28;1156;-76
2022/09/26 14:01:20;;;;;;;;;;;;;;;;;;5033245;28;944;-76
2022/09/26 14:03:46;;;;;;;;;;;;;;;;;;5008776;28;1447;-75
2022/09/26 14:06:25;;;;;;;;;;;;;;;;;;5013150;28;1352;-75
2022/09/26 14:09:23;;;;;;;;;;;;;;;;;;5013161;28;1063;-75
2022/09/26 14:11:50;;;;;;;;;;;;;;;;;;5012324;28;1923;-75
2022/09/26 14:14:25;;;;;;;;;;;;;;;;;;5013078;28;1408;-75
2022/09/26 14:16:52;;;;;;;;;;;;;;;;;;5013018;28;1111;-75
2022/09/26 14:19:19;;;;;;;;;;;;;;;;;;5013129;28;1075;-76
2022/09/26 14:21:57;;;;;;;;;;;;;;;;;;5012793;28;1032;-75
2022/09/26 14:24:28;;;;;;;;;;;;;;;;;;5012758;28;1331;-75
2022/09/26 14:26:58;;;;;;;;;;;;;;;;;;5013649;28;1013;-75
2022/09/26 14:29:34;;;;;;;;;;;;;;;;;;5012733;28;1080;-75
2022/09/26 14:32:03;;;;;;;;;;;;;;;;;;5012364;28;985;-75
2022/09/26 14:34:29;;;;;;;;;;;;;;;;;;5011144;28;1443;-75
2022/09/26 14:36:56;;;;;;;;;;;;;;;;;;5011276;28;1132;-75
2022/09/26 14:39:24;;;;;;;;;;;;;;;;;;5011369;28;1385;-75
2022/09/26 14:41:52;;;;;;;;;;;;;;;;;;5011794;28;1129;-76
2022/09/26 14:44:19;;;;;;;;;;;;;;;;;;4994963;28;1355;-76
2022/09/26 14:46:46;;;;;;;;;;;;;;;;;;5012352;28;1135;-75
2022/09/26 14:49:22;;;;;;;;;;;;;;;;;;5012021;28;1324;-76
2022/09/26 14:51:48;;;;;;;;;;;;;;;;;;5010622;28;1938;-75
2022/09/26 14:54:17;;;;;;;;;;;;;;;;;;5012198;28;1403;-76
2022/09/26 14:56:45;;;;;;;;;;;;;;;;;;5011960;28;1080;-75
2022/09/26 14:59:21;;;;;;;;;;;;;;;;;;5010940;28;1224;-75
2022/09/26 15:01:48;;;;;;;;;;;;;;;;;;5011836;28;1068;-75
2022/09/26 15:04:15;;;;;;;;;;;;;;;;;;5020410;28;1830;-75
2022/09/26 15:06:42;;;;;;;;;;;;;;;;;;5024037;28;1747;-74
2022/09/26 15:09:08;;;;;;;;;;;;;;;;;;5031629;28;1168;-75
2022/09/26 15:11:37;;;;;;;;;;;;;;;;;;5023692;28;1981;-75
2022/09/26 15:14:05;;;;;;;;;;;;;;;;;;5030300;28;1377;-75
2022/09/26 15:16:32;;;;;;;;;;;;;;;;;;5031411;28;1558;-75
2022/09/26 15:19:00;;;;;;;;;;;;;;;;;;5031817;28;926;-75
2022/09/26 15:21:26;;;;;;;;;;;;;;;;;;5031091;28;1112;-75
2022/09/26 15:23:53;;;;;;;;;;;;;;;;;;5031473;28;1052;-75
2022/09/26 15:26:20;;;;;;;;;;;;;;;;;;5031403;28;1309;-75
2022/09/26 15:28:47;;;;;;;;;;;;;;;;;;5031469;28;1112;-75
2022/09/26 15:31:23;;;;;;;;;;;;;;;;;;5031082;28;1976;-75
2022/09/26 15:33:51;;;;;;;;;;;;;;;;;;5031496;28;965;-75
2022/09/26 15:36:18;;;;;;;;;;;;;;;;;;5029904;28;1404;-76
2022/09/26 15:38:44;;;;;;;;;;;;;;;;;;5030139;28;1230;-75
2022/09/26 15:41:12;;;;;;;;;;;;;;;;;;5031285;28;950;-76
2022/09/26 15:43:37;;;;;;;;;;;;;;;;;;5031092;28;1016;-76
2022/09/26 15:46:03;;;;;;;;;;;;;;;;;;5030874;28;1466;-75
2022/09/26 15:48:31;;;;;;;;;;;;;;;;;;4996525;28;1531;-75
2022/09/26 15:50:58;;;;;;;;;;;;;;;;;;5011429;28;1974;-75
2022/09/26 15:53:27;;;;;;;;;;;;;;;;;;4993342;28;1207;-75
2022/09/26 15:55:54;;;;;;;;;;;;;;;;;;5011686;28;1383;-75
2022/09/26 15:58:21;;;;;;;;;;;;;;;;;;4993914;28;1267;-75
2022/09/26 16:00:48;;;;;;;;;;;;;;;;;;5012162;28;874;-76
2022/09/26 16:03:32;;;;;;;;;;;;;;;;;;5011376;28;937;-76
2022/09/26 16:05:58;;;;;;;;;;;;;;;;;;4993694;28;1390;-75
2022/09/26 16:08:25;;;;;;;;;;;;;;;;;;5011442;28;938;-76
2022/09/26 16:10:53;;;;;;;;;;;;;;;;;;4993711;28;1915;-75
2022/09/26 16:13:22;;;;;;;;;;;;;;;;;;5011112;28;957;-76
2022/09/26 16:15:48;;;;;;;;;;;;;;;;;;5011375;28;1320;-76
2022/09/26 16:18:22;;;;;;;;;;;;;;;;;;4993618;28;1375;-75
2022/09/26 16:20:48;;;;;;;;;;;;;;;;;;5011444;28;1142;-75
2022/09/26 16:23:25;;;;;;;;;;;;;;;;;;5010814;28;941;-75
2022/09/26 16:25:52;;;;;;;;;;;;;;;;;;5011362;28;1338;-75
2022/09/26 16:28:21;;;;;;;;;;;;;;;;;;5011246;28;981;-75
2022/09/26 16:30:52;;;;;;;;;;;;;;;;;;5010837;28;1914;-75
2022/09/26 16:33:29;;;;;;;;;;;;;;;;;;5010856;28;783;-76
2022/09/26 16:35:55;;;;;;;;;;;;;;;;;;5010836;28;1384;-75
2022/09/26 16:38:22;;;;;;;;;;;;;;;;;;5011073;28;1112;-75
2022/09/26 16:40:49;;;;;;;;;;;;;;;;;;5011071;28;1116;-74
2022/09/26 16:43:16;;;;;;;;;;;;;;;;;;5010779;28;949;-75
2022/09/26 16:45:46;;;;;;;;;;;;;;;;;;5011002;28;1337;-75
2022/09/26 16:48:27;;;;;;;;;;;;;;;;;;4993190;28;1504;-75
2022/09/26 16:51:02;;;;;;;;;;;;;;;;;;4991622;28;1918;-75
2022/09/26 16:53:29;;;;;;;;;;;;;;;;;;5048412;22;3719;-73
2022/09/26 16:55:55;;;;;;;;;;;;;;;;;;5047532;28;1101;-73
2022/09/26 16:58:21;;;;;;;;;;;;;;;;;;5047576;28;1532;-73
2022/09/26 17:03:33;;;;;;;;;;;;;;;;;;5043017;28;1458;-73
2022/09/26 17:05:59;;;;;;;;;;;;;;;;;;5050547;28;1313;-74
2022/09/26 17:08:26;;;;;;;;;;;;;;;;;;5052459;28;1621;-73
2022/09/26 17:10:52;;;;;;;;;;;;;;;;;;5043300;28;1914;-73
2022/09/26 17:13:21;;;;;;;;;;;;;;;;;;5049983;28;1406;-74
2022/09/26 17:15:49;;;;;;;;;;;;;;;;;;5053355;28;877;-74
2022/09/26 17:18:15;;;;;;;;;;;;;;;;;;5070572;28;1523;-75
2022/09/26 17:20:42;;;;;;;;;;;;;;;;;;5050007;28;1455;-74
2022/09/26 17:23:09;;;;;;;;;;;;;;;;;;5030639;28;1579;-74
2022/09/26 17:25:35;;;;;;;;;;;;;;;;;;5049198;28;1551;-74
2022/09/26 17:28:03;;;;;;;;;;;;;;;;;;5031742;28;1645;-73
2022/09/26 17:30:29;;;;;;;;;;;;;;;;;;5026829;28;1910;-74
2022/09/26 17:32:57;;;;;;;;;;;;;;;;;;5049424;28;1714;-73
2022/09/26 17:35:24;;;;;;;;;;;;;;;;;;5042794;28;1555;-73
2022/09/26 17:37:51;;;;;;;;;;;;;;;;;;5050687;28;1590;-73
2022/09/26 17:40:21;;;;;;;;;;;;;;;;;;5047590;28;1570;-73
2022/09/26 17:42:47;;;;;;;;;;;;;;;;;;5050421;28;1468;-75
2022/09/26 17:45:14;;;;;;;;;;;;;;;;;;5050007;28;1733;-70
2022/09/26 17:47:40;;;;;;;;;;;;;;;;;;5032876;28;1504;-75
2022/09/26 17:50:10;;;;;;;;;;;;;;;;;;5051087;28;1155;-73
2022/09/26 17:52:36;;;;;;;;;;;;;;;;;;5043502;28;1953;-73
2022/09/26 17:55:04;;;;;;;;;;;;;;;;;;5048686;28;1186;-76
2022/09/26 17:57:31;;;;;;;;;;;;;;;;;;5051682;28;928;-73